createdAt,value
2023-03-18T00:01:54.208Z,4.09
2023-03-18T00:04:24.474Z,4.11
2023-03-18T00:06:52.848Z,4.14
2023-03-18T00:09:27.811Z,4.14
2023-03-18T00:11:56.907Z,4.13
2023-03-18T00:14:25.765Z,4.12
2023-03-18T00:16:57.750Z,4.08
2023-03-18T00:19:26.129Z,4.04
2023-03-18T00:21:54.316Z,4.03
2023-03-18T00:24:23.121Z,4.03
2023-03-18T00:26:51.961Z,4.03
2023-03-18T00:29:21.413Z,4.03
2023-03-18T00:31:50.621Z,4.02
2023-03-18T00:34:18.870Z,4.01
2023-03-18T00:36:50.957Z,4.01
2023-03-18T00:39:26.481Z,4.00
2023-03-18T00:41:58.273Z,3.99
2023-03-18T00:44:27.616Z,3.98
2023-03-18T00:46:58.498Z,3.97
2023-03-18T00:49:28.175Z,3.97
2023-03-18T00:51:56.431Z,3.97
2023-03-18T00:54:24.881Z,3.97
2023-03-18T00:56:54.217Z,3.96
2023-03-18T00:59:26.269Z,3.95
2023-03-18T01:01:54.489Z,3.93
2023-03-18T01:04:23.207Z,3.92
2023-03-18T01:06:52.191Z,3.92
2023-03-18T01:09:20.505Z,3.91
2023-03-18T01:11:48.706Z,3.91
2023-03-18T01:14:16.940Z,3.91
2023-03-18T01:16:49.252Z,3.91
2023-03-18T01:19:18.049Z,3.91
2023-03-18T01:21:46.328Z,3.90
2023-03-18T01:24:14.996Z,3.90
2023-03-18T01:26:43.223Z,3.88
2023-03-18T01:29:11.489Z,3.88
2023-03-18T01:31:40.038Z,3.88
2023-03-18T01:34:14.244Z,3.89
2023-03-18T01:36:51.569Z,3.89
2023-03-18T01:39:21.493Z,3.88
2023-03-18T01:41:49.941Z,3.89
2023-03-18T01:44:22.933Z,3.89
2023-03-18T01:46:54.229Z,3.89
2023-03-18T01:49:28.995Z,3.87
2023-03-18T01:52:03.808Z,3.85
2023-03-18T01:54:34.968Z,3.86
2023-03-18T01:57:07.709Z,3.87
2023-03-18T01:59:38.582Z,3.90
2023-03-18T02:02:12.220Z,3.91
2023-03-18T02:04:50.489Z,3.93
2023-03-18T02:07:26.091Z,3.91
2023-03-18T02:09:54.853Z,3.88
2023-03-18T02:12:25.922Z,3.86
2023-03-18T02:14:56.777Z,3.84
2023-03-18T02:17:31.150Z,3.82
2023-03-18T02:20:26.121Z,3.82
2023-03-18T02:22:57.897Z,3.81
2023-03-18T02:25:52.724Z,3.79
2023-03-18T02:28:25.856Z,3.78
2023-03-18T02:30:57.540Z,3.78
2023-03-18T02:33:28.477Z,3.78
2023-03-18T02:36:03.485Z,3.78
2023-03-18T02:38:32.837Z,3.78
2023-03-18T02:41:01.837Z,3.76
2023-03-18T02:43:37.709Z,3.76
2023-03-18T02:46:08.188Z,3.76
2023-03-18T02:48:44.289Z,3.76
2023-03-18T02:51:16.231Z,3.76
2023-03-18T02:53:48.804Z,3.75
2023-03-18T02:56:18.753Z,3.74
2023-03-18T02:58:47.254Z,3.73
2023-03-18T03:01:16.946Z,3.72
2023-03-18T03:04:10.584Z,3.71
2023-03-18T03:06:39.474Z,3.70
2023-03-18T03:09:09.538Z,3.68
2023-03-18T03:11:37.986Z,3.65
2023-03-18T03:14:12.954Z,3.63
2023-03-18T03:16:41.536Z,3.63
2023-03-18T03:19:09.908Z,3.62
2023-03-18T03:21:38.495Z,3.61
2023-03-18T03:24:06.899Z,3.61
2023-03-18T03:26:37.112Z,3.62
2023-03-18T03:29:07.569Z,3.62
2023-03-18T03:31:35.973Z,3.61
2023-03-18T03:34:06.743Z,3.60
2023-03-18T03:36:35.102Z,3.59
2023-03-18T03:39:04.310Z,3.56
2023-03-18T03:41:38.054Z,3.52
2023-03-18T03:44:06.391Z,3.51
2023-03-18T03:46:35.031Z,3.50
2023-03-18T03:49:04.619Z,3.49
2023-03-18T03:51:33.156Z,3.48
2023-03-18T03:54:01.938Z,3.48
2023-03-18T03:56:32.278Z,3.46
2023-03-18T03:59:02.433Z,3.45
2023-03-18T04:01:47.959Z,3.41
2023-03-18T04:04:17.067Z,3.39
2023-03-18T04:06:46.607Z,3.36
2023-03-18T04:09:15.897Z,3.35
2023-03-18T04:11:45.022Z,3.36
2023-03-18T04:14:13.250Z,3.37
2023-03-18T04:16:41.880Z,3.36
2023-03-18T04:19:11.092Z,3.37
2023-03-18T04:21:39.354Z,3.38
2023-03-18T04:24:08.591Z,3.40
2023-03-18T04:26:37.381Z,3.39
2023-03-18T04:29:07.011Z,3.38
2023-03-18T04:31:35.575Z,3.38
2023-03-18T04:34:03.909Z,3.37
2023-03-18T04:36:32.296Z,3.36
2023-03-18T04:39:00.996Z,3.37
2023-03-18T04:41:30.146Z,3.39
2023-03-18T04:44:00.695Z,3.40
2023-03-18T04:46:36.352Z,3.42
2023-03-18T04:49:05.260Z,3.43
2023-03-18T04:51:35.969Z,3.44
2023-03-18T04:54:05.238Z,3.42
2023-03-18T04:56:34.453Z,3.43
2023-03-18T04:59:03.619Z,3.43
2023-03-18T05:01:34.712Z,3.43
2023-03-18T05:04:03.847Z,3.43
2023-03-18T05:06:39.601Z,3.44
2023-03-18T05:09:13.649Z,3.46
2023-03-18T05:11:44.578Z,3.49
2023-03-18T05:14:22.725Z,3.51
2023-03-18T05:16:51.896Z,3.54
2023-03-18T05:19:20.774Z,3.56
2023-03-18T05:21:56.181Z,3.57
2023-03-18T05:24:25.708Z,3.61
2023-03-18T05:27:00.237Z,3.61
2023-03-18T05:29:34.323Z,3.58
2023-03-18T05:32:24.835Z,3.56
2023-03-18T05:34:57.174Z,3.58
2023-03-18T05:37:27.085Z,3.59
2023-03-18T05:40:04.412Z,3.61
2023-03-18T05:42:35.164Z,3.63
2023-03-18T05:45:07.562Z,3.64
2023-03-18T05:47:37.620Z,3.65
2023-03-18T05:50:39.749Z,3.66
2023-03-18T05:53:11.060Z,3.67
2023-03-18T05:55:41.078Z,3.67
2023-03-18T05:58:10.027Z,3.65
2023-03-18T06:00:39.149Z,3.65
2023-03-18T06:03:09.127Z,3.66
2023-03-18T06:05:37.841Z,3.69
2023-03-18T06:08:07.232Z,3.72
2023-03-18T06:10:40.410Z,3.75
2023-03-18T06:13:11.138Z,3.78
2023-03-18T06:15:40.178Z,3.80
2023-03-18T06:18:08.541Z,3.81
2023-03-18T06:20:37.514Z,3.81
2023-03-18T06:23:11.049Z,3.83
2023-03-18T06:25:41.362Z,3.87
2023-03-18T06:28:10.270Z,3.88
2023-03-18T06:30:40.051Z,3.88
2023-03-18T06:33:18.669Z,3.88
2023-03-18T06:35:50.250Z,3.86
2023-03-18T06:38:19.414Z,3.85
2023-03-18T06:40:48.365Z,3.84
2023-03-18T06:43:18.847Z,3.85
2023-03-18T06:45:48.170Z,3.90
2023-03-18T06:48:18.699Z,3.95
2023-03-18T06:50:49.949Z,4.02
2023-03-18T06:53:36.407Z,4.07
2023-03-18T06:56:06.195Z,4.10
2023-03-18T06:58:41.062Z,4.11
2023-03-18T07:01:12.783Z,4.13
2023-03-18T07:03:43.923Z,4.14
2023-03-18T07:06:14.162Z,4.12
2023-03-18T07:08:44.800Z,4.12
2023-03-18T07:11:13.528Z,4.14
2023-03-18T07:13:44.280Z,4.16
2023-03-18T07:16:19.332Z,4.18
2023-03-18T07:18:48.043Z,4.21
2023-03-18T07:21:19.745Z,4.22
2023-03-18T07:23:49.589Z,4.21
2023-03-18T07:26:24.294Z,4.21
2023-03-18T07:28:53.377Z,4.23
2023-03-18T07:31:21.745Z,4.23
2023-03-18T07:33:51.825Z,4.24
2023-03-18T07:36:21.544Z,4.25
2023-03-18T07:38:49.905Z,4.28
2023-03-18T07:41:18.223Z,4.32
2023-03-18T07:43:46.723Z,4.35
2023-03-18T07:46:16.282Z,4.39
2023-03-18T07:48:46.808Z,4.43
2023-03-18T07:51:16.743Z,4.47
2023-03-18T07:53:46.049Z,4.51
2023-03-18T07:56:14.369Z,4.53
2023-03-18T07:58:43.270Z,4.55
2023-03-18T08:01:13.506Z,4.59
2023-03-18T08:03:43.954Z,4.63
2023-03-18T08:06:13.434Z,4.69
2023-03-18T08:08:41.906Z,4.74
2023-03-18T08:11:14.959Z,4.78
2023-03-18T08:13:43.932Z,4.83
2023-03-18T08:16:12.540Z,4.91
2023-03-18T08:18:47.016Z,4.99
2023-03-18T08:21:16.267Z,5.07
2023-03-18T08:23:44.930Z,5.14
2023-03-18T08:26:13.298Z,5.20
2023-03-18T08:28:41.979Z,5.25
2023-03-18T08:31:11.092Z,5.27
2023-03-18T08:33:39.387Z,5.28
2023-03-18T08:36:08.696Z,5.26
2023-03-18T08:38:38.002Z,5.25
2023-03-18T08:41:06.800Z,5.24
2023-03-18T08:43:36.387Z,5.21
2023-03-18T08:46:07.545Z,5.18
2023-03-18T08:48:36.343Z,5.17
2023-03-18T08:51:08.396Z,5.14
2023-03-18T08:53:40.162Z,5.13
2023-03-18T08:56:15.009Z,5.13
2023-03-18T08:58:46.246Z,5.15
2023-03-18T09:01:22.425Z,5.16
2023-03-18T09:03:59.267Z,5.18
2023-03-18T09:06:28.903Z,5.18
2023-03-18T09:09:01.908Z,5.16
2023-03-18T09:11:35.073Z,5.16
2023-03-18T09:14:05.699Z,5.15
2023-03-18T09:16:40.748Z,5.15
2023-03-18T09:19:09.091Z,5.17
2023-03-18T09:21:37.835Z,5.19
2023-03-18T09:24:11.837Z,5.21
2023-03-18T09:26:40.390Z,5.24
2023-03-18T09:29:16.589Z,5.26
2023-03-18T09:31:45.358Z,5.26
2023-03-18T09:34:15.246Z,5.25
2023-03-18T09:36:51.168Z,5.24
2023-03-18T09:39:22.797Z,5.25
2023-03-18T09:41:54.110Z,5.25
2023-03-18T09:44:30.414Z,5.29
2023-03-18T09:47:18.842Z,5.35
2023-03-18T09:49:53.989Z,5.39
2023-03-18T09:52:41.313Z,5.43
2023-03-18T09:55:18.070Z,5.49
2023-03-18T09:57:48.910Z,5.50
2023-03-18T10:00:34.455Z,5.50
2023-03-18T10:03:24.386Z,5.51
2023-03-18T10:05:56.987Z,5.50
2023-03-18T10:08:49.198Z,5.50
2023-03-18T10:11:33.493Z,5.49
2023-03-18T10:14:21.316Z,5.48
2023-03-18T10:17:28.844Z,5.50
2023-03-18T10:20:04.367Z,5.48
2023-03-18T10:22:55.053Z,5.48
2023-03-18T10:25:29.333Z,5.48
2023-03-18T10:28:17.825Z,5.48
2023-03-18T10:31:01.893Z,5.50
2023-03-18T10:34:01.467Z,5.53
2023-03-18T10:36:47.466Z,5.53
2023-03-18T10:39:19.637Z,5.54
2023-03-18T10:41:50.483Z,5.56
2023-03-18T10:44:31.279Z,5.56
2023-03-18T10:47:15.689Z,5.58
2023-03-18T10:49:47.392Z,5.57
2023-03-18T10:52:35.181Z,5.58
2023-03-18T10:55:18.075Z,5.61
2023-03-18T10:57:46.618Z,5.62
2023-03-18T11:00:29.853Z,5.60
2023-03-18T11:02:58.406Z,5.61
2023-03-18T11:05:35.566Z,5.61
2023-03-18T11:08:05.425Z,5.61
2023-03-18T11:10:40.534Z,5.60
2023-03-18T11:13:17.843Z,5.58
2023-03-18T11:15:53.358Z,5.60
2023-03-18T11:18:24.046Z,5.64
2023-03-18T11:21:01.249Z,5.65
2023-03-18T11:24:11.072Z,5.70
2023-03-18T11:26:52.820Z,5.76
2023-03-18T11:29:24.484Z,5.81
2023-03-18T11:31:58.057Z,5.83
2023-03-18T11:34:30.276Z,5.84
2023-03-18T11:37:10.967Z,5.87
2023-03-18T11:39:41.041Z,5.86
2023-03-18T11:42:27.514Z,5.87
2023-03-18T11:44:57.132Z,5.91
2023-03-18T11:47:31.222Z,5.92
2023-03-18T11:49:59.602Z,5.93
2023-03-18T11:52:37.577Z,5.96
2023-03-18T11:55:37.630Z,6.01
2023-03-18T11:58:42.476Z,6.06
2023-03-18T12:01:56.969Z,6.13
2023-03-18T12:04:32.587Z,6.16
2023-03-18T12:07:31.608Z,6.18
2023-03-18T12:10:22.402Z,6.21
2023-03-18T12:13:09.718Z,6.25
2023-03-18T12:16:01.676Z,6.31
2023-03-18T12:18:45.411Z,6.38
2023-03-18T12:21:19.794Z,6.48
2023-03-18T12:23:56.667Z,6.60
2023-03-18T12:26:48.782Z,6.79
2023-03-18T12:29:46.063Z,7.10
2023-03-18T12:32:27.578Z,7.49
2023-03-18T12:35:00.484Z,7.83
2023-03-18T12:37:44.790Z,8.17
2023-03-18T12:40:25.150Z,8.53
2023-03-18T12:43:24.578Z,8.82
2023-03-18T12:46:03.723Z,9.09
2023-03-18T12:48:44.829Z,9.35
2023-03-18T12:51:18.392Z,9.61
2023-03-18T12:53:54.666Z,9.78
2023-03-18T12:56:27.888Z,9.96
2023-03-18T12:59:19.369Z,10.14
2023-03-18T13:01:49.457Z,10.37
2023-03-18T13:04:22.501Z,10.55
2023-03-18T13:07:26.796Z,10.77
2023-03-18T13:09:59.659Z,11.08
2023-03-18T13:12:30.814Z,11.28
2023-03-18T13:15:18.524Z,11.34
2023-03-18T13:17:47.853Z,11.39
2023-03-18T13:20:29.181Z,11.48
2023-03-18T13:23:08.783Z,11.59
2023-03-18T13:26:07.227Z,11.73
2023-03-18T13:28:38.832Z,11.87
2023-03-18T13:31:43.547Z,12.00
2023-03-18T13:34:31.799Z,12.05
2023-03-18T13:37:26.371Z,12.05
2023-03-18T13:40:14.682Z,12.14
2023-03-18T13:42:44.695Z,12.18
2023-03-18T13:45:33.957Z,12.27
2023-03-18T13:48:16.782Z,12.37
2023-03-18T13:50:46.411Z,12.47
2023-03-18T13:53:22.497Z,12.50
2023-03-18T13:55:57.830Z,12.60
2023-03-18T13:58:35.709Z,12.78
2023-03-18T14:01:15.519Z,12.89
2023-03-18T14:03:44.405Z,12.94
2023-03-18T14:06:16.380Z,12.93
2023-03-18T14:08:51.192Z,12.89
2023-03-18T14:11:27.222Z,12.82
2023-03-18T14:14:00.833Z,12.66
2023-03-18T14:16:38.951Z,12.34
2023-03-18T14:19:32.715Z,11.93
2023-03-18T14:22:23.126Z,11.64
2023-03-18T14:25:11.690Z,11.41
2023-03-18T14:28:00.401Z,11.13
2023-03-18T14:30:38.174Z,10.99
2023-03-18T14:33:22.943Z,10.87
2023-03-18T14:35:54.980Z,10.77
2023-03-18T14:38:40.816Z,10.63
2023-03-18T14:41:20.828Z,10.48
2023-03-18T14:44:06.602Z,10.30
2023-03-18T14:46:38.694Z,10.12
2023-03-18T14:49:35.635Z,9.98
2023-03-18T14:52:08.346Z,9.85
2023-03-18T14:54:38.848Z,9.77
2023-03-18T14:57:10.066Z,9.73
2023-03-18T14:59:38.685Z,9.69
2023-03-18T15:02:13.214Z,9.66
2023-03-18T15:04:41.718Z,9.57
2023-03-18T15:07:10.978Z,9.54
2023-03-18T15:09:46.632Z,9.53
2023-03-18T15:12:20.486Z,9.44
2023-03-18T15:14:51.490Z,9.36
2023-03-18T15:17:19.972Z,9.29
2023-03-18T15:19:59.746Z,9.21
2023-03-18T15:22:30.776Z,9.13
2023-03-18T15:25:08.594Z,9.17
2023-03-18T15:27:37.648Z,9.24
2023-03-18T15:30:06.948Z,9.30
2023-03-18T15:32:46.595Z,9.32
2023-03-18T15:35:30.071Z,9.27
2023-03-18T15:38:19.505Z,9.14
2023-03-18T15:40:50.390Z,9.03
2023-03-18T15:43:28.680Z,8.99
2023-03-18T15:45:59.911Z,8.92
2023-03-18T15:48:32.051Z,8.82
2023-03-18T15:51:05.093Z,8.75
2023-03-18T15:53:42.692Z,8.72
2023-03-18T15:56:18.062Z,8.69
2023-03-18T15:58:47.490Z,8.63
2023-03-18T16:01:17.898Z,8.53
2023-03-18T16:03:47.956Z,8.40
2023-03-18T16:06:17.913Z,8.28
2023-03-18T16:08:46.621Z,8.17
2023-03-18T16:11:17.933Z,8.10
2023-03-18T16:13:46.362Z,8.03
2023-03-18T16:16:21.438Z,7.98
2023-03-18T16:18:49.744Z,7.92
2023-03-18T16:21:18.872Z,7.85
2023-03-18T16:23:48.483Z,7.77
2023-03-18T16:26:18.291Z,7.71
2023-03-18T16:28:48.323Z,7.67
2023-03-18T16:31:17.823Z,7.61
2023-03-18T16:33:47.467Z,7.53
2023-03-18T16:36:22.654Z,7.40
2023-03-18T16:38:51.036Z,7.27
2023-03-18T16:41:19.991Z,7.21
2023-03-18T16:43:50.300Z,7.15
2023-03-18T16:46:19.338Z,7.09
2023-03-18T16:48:49.503Z,6.99
2023-03-18T16:51:19.073Z,6.92
2023-03-18T16:53:50.294Z,6.87
2023-03-18T16:56:19.163Z,6.81
2023-03-18T16:58:52.134Z,6.74
2023-03-18T17:01:21.480Z,6.64
2023-03-18T17:03:52.146Z,6.51
2023-03-18T17:06:24.738Z,6.39
2023-03-18T17:08:53.888Z,6.29
2023-03-18T17:11:22.880Z,6.20
2023-03-18T17:13:52.628Z,6.10
2023-03-18T17:16:21.888Z,6.03
2023-03-18T17:18:50.187Z,6.00
2023-03-18T17:21:18.600Z,5.99
2023-03-18T17:23:47.818Z,5.96
2023-03-18T17:26:16.409Z,5.93
2023-03-18T17:28:47.916Z,5.89
2023-03-18T17:31:17.987Z,5.82
2023-03-18T17:33:50.733Z,5.77
2023-03-18T17:36:20.798Z,5.75
2023-03-18T17:38:49.074Z,5.68
2023-03-18T17:41:21.120Z,5.60
2023-03-18T17:43:54.157Z,5.51
2023-03-18T17:46:22.791Z,5.42
2023-03-18T17:48:51.965Z,5.37
2023-03-18T17:51:24.772Z,5.35
2023-03-18T17:53:56.521Z,5.33
2023-03-18T17:56:25.987Z,5.35
2023-03-18T17:58:57.348Z,5.35
2023-03-18T18:01:27.477Z,5.36
2023-03-18T18:03:57.793Z,5.38
2023-03-18T18:06:31.944Z,5.40
2023-03-18T18:09:01.740Z,5.39
2023-03-18T18:11:46.211Z,5.38
2023-03-18T18:14:25.076Z,5.28
2023-03-18T18:17:15.110Z,5.20
2023-03-18T18:19:46.290Z,5.16
2023-03-18T18:22:22.190Z,5.07
2023-03-18T18:24:53.213Z,5.03
2023-03-18T18:27:21.988Z,5.00
2023-03-18T18:29:50.677Z,4.98
2023-03-18T18:32:22.022Z,4.95
2023-03-18T18:34:51.373Z,4.90
2023-03-18T18:37:39.718Z,4.87
2023-03-18T18:40:10.752Z,4.80
2023-03-18T18:42:42.061Z,4.75
2023-03-18T18:45:19.365Z,4.70
2023-03-18T18:47:47.902Z,4.62
2023-03-18T18:50:21.838Z,4.56
2023-03-18T18:52:50.950Z,4.49
2023-03-18T18:55:19.440Z,4.43
2023-03-18T18:57:49.035Z,4.37
2023-03-18T19:00:22.455Z,4.29
2023-03-18T19:02:57.162Z,4.23
2023-03-18T19:05:25.395Z,4.22
2023-03-18T19:07:53.831Z,4.20
2023-03-18T19:10:22.405Z,4.21
2023-03-18T19:12:52.687Z,4.20
2023-03-18T19:15:26.238Z,4.19
2023-03-18T19:17:54.858Z,4.15
2023-03-18T19:20:29.419Z,4.08
2023-03-18T19:23:00.823Z,4.04
2023-03-18T19:25:29.715Z,4.01
2023-03-18T19:27:59.171Z,3.96
2023-03-18T19:30:28.308Z,3.88
2023-03-18T19:32:57.190Z,3.80
2023-03-18T19:35:27.410Z,3.76
2023-03-18T19:37:57.632Z,3.67
2023-03-18T19:40:30.319Z,3.62
2023-03-18T19:42:59.123Z,3.60
2023-03-18T19:45:27.457Z,3.55
2023-03-18T19:47:57.404Z,3.50
2023-03-18T19:50:26.746Z,3.45
2023-03-18T19:52:56.859Z,3.42
2023-03-18T19:55:27.014Z,3.40
2023-03-18T19:57:55.299Z,3.34
2023-03-18T20:00:24.791Z,3.28
2023-03-18T20:02:54.381Z,3.24
2023-03-18T20:05:28.245Z,3.17
2023-03-18T20:07:56.715Z,3.11
2023-03-18T20:10:25.310Z,3.05
2023-03-18T20:12:55.132Z,3.02
2023-03-18T20:15:27.102Z,3.01
2023-03-18T20:17:55.774Z,3.01
2023-03-18T20:20:25.809Z,2.99
2023-03-18T20:23:03.808Z,2.91
2023-03-18T20:25:37.588Z,2.87
2023-03-18T20:28:08.064Z,2.84
2023-03-18T20:30:40.263Z,2.81
2023-03-18T20:33:12.010Z,2.79
2023-03-18T20:35:44.578Z,2.76
2023-03-18T20:38:34.489Z,2.70
2023-03-18T20:41:05.643Z,2.63
2023-03-18T20:43:35.637Z,2.56
2023-03-18T20:46:06.941Z,2.52
2023-03-18T20:48:41.431Z,2.50
2023-03-18T20:51:33.313Z,2.45
2023-03-18T20:54:06.038Z,2.43
2023-03-18T20:56:35.379Z,2.39
2023-03-18T20:59:07.131Z,2.35
2023-03-18T21:01:35.546Z,2.31
2023-03-18T21:04:11.749Z,2.26
2023-03-18T21:06:41.506Z,2.22
2023-03-18T21:09:12.500Z,2.18
2023-03-18T21:11:42.911Z,2.13
2023-03-18T21:14:15.545Z,2.08
2023-03-18T21:16:43.754Z,2.05
2023-03-18T21:19:12.826Z,2.05
2023-03-18T21:21:41.262Z,2.06
2023-03-18T21:24:24.853Z,2.07
2023-03-18T21:27:04.129Z,2.10
2023-03-18T21:29:33.669Z,2.10
2023-03-18T21:32:08.325Z,2.07
2023-03-18T21:34:38.386Z,2.07
2023-03-18T21:37:14.288Z,2.11
2023-03-18T21:39:43.288Z,2.13
2023-03-18T21:42:24.621Z,2.15
2023-03-18T21:44:54.089Z,2.18
2023-03-18T21:47:24.708Z,2.20
2023-03-18T21:49:56.774Z,2.19
2023-03-18T21:52:36.183Z,2.17
2023-03-18T21:55:06.904Z,2.19
2023-03-18T21:57:37.244Z,2.22
2023-03-18T22:00:06.908Z,2.24
2023-03-18T22:02:38.908Z,2.27
2023-03-18T22:05:15.395Z,2.26
2023-03-18T22:07:47.874Z,2.21
2023-03-18T22:10:20.364Z,2.20
2023-03-18T22:12:49.340Z,2.22
2023-03-18T22:15:23.799Z,2.24
2023-03-18T22:17:53.534Z,2.28
2023-03-18T22:20:23.470Z,2.32
2023-03-18T22:22:53.417Z,2.32
2023-03-18T22:25:36.599Z,2.30
2023-03-18T22:28:05.824Z,2.30
2023-03-18T22:30:34.652Z,2.28
2023-03-18T22:33:03.983Z,2.31
2023-03-18T22:35:33.482Z,2.35
2023-03-18T22:38:02.345Z,2.37
2023-03-18T22:40:31.545Z,2.41
2023-03-18T22:43:01.684Z,2.43
2023-03-18T22:45:32.283Z,2.44
2023-03-18T22:48:04.673Z,2.43
2023-03-18T22:50:35.699Z,2.41
2023-03-18T22:53:06.044Z,2.43
2023-03-18T22:55:39.126Z,2.46
2023-03-18T22:58:07.594Z,2.46
2023-03-18T23:00:41.111Z,2.47
2023-03-18T23:03:20.084Z,2.48
2023-03-18T23:05:52.419Z,2.49
2023-03-18T23:08:21.102Z,2.50
2023-03-18T23:10:51.099Z,2.53
2023-03-18T23:13:26.187Z,2.57
2023-03-18T23:15:54.561Z,2.56
2023-03-18T23:18:23.876Z,2.57
2023-03-18T23:20:54.054Z,2.60
2023-03-18T23:23:22.323Z,2.61
2023-03-18T23:25:51.172Z,2.61
2023-03-18T23:28:21.004Z,2.62
2023-03-18T23:30:50.576Z,2.63
2023-03-18T23:33:20.878Z,2.64
2023-03-18T23:35:49.739Z,2.66
2023-03-18T23:38:18.098Z,2.68
2023-03-18T23:40:46.322Z,2.71
2023-03-18T23:43:21.566Z,2.73
2023-03-18T23:45:51.799Z,2.75
2023-03-18T23:48:20.466Z,2.77
2023-03-18T23:50:50.497Z,2.77
2023-03-18T23:53:18.760Z,2.75
2023-03-18T23:55:49.265Z,2.75
2023-03-18T23:58:18.656Z,2.77
